Palmer Park, Maryland
Current Conditions -  °F | °C
As of 1:10 PM on Friday 19 Dec 2014 (Local Time) from KCGS Reporting Station
Overcast Overcast  
Wind Chill: 30°   Ceiling: 3500
Heat Index: 37°   Visibility: 10mi
Dew Point: 25°   Wind: 10mph
Humidity: 60%   Direction: 310°NW
Pressure: 30.14"   Gusts: 17mph
Location:  38.9183°N, 76.8721°W
Report Text: KCGS 191810Z AUTO 31009G15KT 10SM OVC035 03/M04 A3014 RMK AO1
Loading
Personal Weather Stations






























Interactive Weather Map New forecast layout! Learn more

10-Day Weather Forecast

Advertisements
Track Severe Weather on mobile